Time;durP1;ratioP1;P1;durP2;ratioP2;P2;SDS_P1;SDS_P2;PMS_P1;PMS_P2;Temp;Humidity;BMP_temperature;BMP_pressure;BME280_temperature;BME280_humidity;BME280_pressure;Samples;Min_cycle;Max_cycle;Signal;HPM_P1;HPM_P2
2021/04/03 00:01:07;;;;;;;0.25;0.25;;;5.80;90.00;;;8.83;74.67;102589.78;4982957;28;96764;-69
2021/04/03 00:03:35;;;;;;;1.98;1.77;;;5.80;90.00;;;8.83;74.31;102593.28;4990341;28;97266;-69
2021/04/03 00:06:05;;;;;;;0.10;0.10;;;5.80;90.00;;;8.85;74.50;102596.53;5004896;28;97456;-69
2021/04/03 00:08:34;;;;;;;3.42;0.30;;;5.80;90.00;;;8.83;74.90;102595.13;4989158;28;97779;-69
2021/04/03 00:11:07;;;;;;;1.02;1.02;;;5.80;90.00;;;8.85;74.53;102587.69;4990053;28;96762;-69
2021/04/03 00:13:40;;;;;;;0.75;0.75;;;5.80;90.00;;;8.87;74.38;102607.78;4988299;28;97263;-68
2021/04/03 00:16:10;;;;;;;0.10;0.10;;;5.80;90.00;;;8.93;74.39;102606.78;4983689;28;96861;-69
2021/04/03 00:18:38;;;;;;;0.17;0.17;;;5.80;90.00;;;8.93;74.30;102614.00;5006523;28;96882;-69
2021/04/03 00:21:06;;;;;;;0.55;0.15;;;5.80;90.10;;;8.91;74.07;102595.53;4989736;28;97514;-69
2021/04/03 00:23:35;;;;;;;0.10;0.10;;;5.80;90.00;;;8.88;73.92;102581.88;4990597;28;97399;-69
2021/04/03 00:26:04;;;;;;;0.00;0.00;;;5.80;90.00;;;8.77;74.49;102585.44;4968868;28;97670;-69
2021/04/03 00:28:32;;;;;;;0.10;0.10;;;5.80;90.00;;;8.79;74.41;102583.31;4988254;28;97603;-69
2021/04/03 00:31:00;;;;;;;2.03;1.02;;;5.80;90.00;;;8.74;74.62;102583.25;4991623;28;96936;-69
2021/04/03 00:33:49;;;;;;;0.10;0.10;;;5.70;90.00;;;8.69;74.50;102570.59;4990105;28;97074;-69
2021/04/03 00:36:16;;;;;;;0.10;0.10;;;5.80;90.00;;;8.75;74.68;102566.97;4988962;28;98711;-69
2021/04/03 00:38:45;;;;;;;0.50;0.50;;;5.70;90.00;;;8.76;74.48;102563.25;4990905;28;97677;-69
2021/04/03 00:41:12;;;;;;;0.52;0.52;;;5.70;90.00;;;8.71;74.65;102562.34;4990812;28;96966;-69
2021/04/03 00:43:40;;;;;;;3.95;1.27;;;5.70;90.00;;;8.76;74.20;102567.78;4991201;28;97280;-69
2021/04/03 00:46:08;;;;;;;0.77;0.65;;;5.70;90.00;;;8.74;74.40;102578.72;4987807;28;97981;-69
2021/04/03 00:48:36;;;;;;;0.10;0.10;;;5.70;90.10;;;8.77;74.30;102569.38;4990506;28;98896;-69
2021/04/03 00:51:09;;;;;;;0.10;0.10;;;5.70;90.10;;;8.79;74.33;102568.09;4993416;28;96945;-68
2021/04/03 00:53:37;;;;;;;0.20;0.20;;;5.70;90.10;;;8.72;74.29;102570.16;5005455;28;96911;-68
2021/04/03 00:56:10;;;;;;;0.10;0.10;;;5.60;90.00;;;8.65;74.63;102566.81;4985790;28;97896;-68
2021/04/03 00:58:38;;;;;;;0.80;0.75;;;5.60;90.10;;;8.63;74.82;102557.44;4987837;28;96859;-68
2021/04/03 01:01:10;;;;;;;0.93;0.77;;;5.60;90.10;;;8.60;75.16;102557.94;4989535;28;96804;-68
2021/04/03 01:03:42;;;;;;;14.82;0.95;;;5.60;90.10;;;8.60;75.18;102557.94;4992056;28;96960;-68
2021/04/03 01:06:10;;;;;;;1.95;1.55;;;5.60;90.10;;;8.56;74.95;102552.25;4986478;28;128745;-68
2021/04/03 01:08:39;;;;;;;0.45;0.45;;;5.60;90.10;;;8.61;74.53;102552.31;4986195;28;97112;-68
2021/04/03 01:11:09;;;;;;;0.20;0.20;;;5.60;90.10;;;8.62;74.65;102550.47;4994132;28;96787;-69
2021/04/03 01:14:08;;;;;;;1.38;0.88;;;5.60;90.10;;;8.65;74.60;102548.09;4989181;28;96919;-68
2021/04/03 01:16:44;;;;;;;0.38;0.38;;;5.60;90.10;;;8.61;74.72;102556.88;4984020;28;98201;-68
2021/04/03 01:19:59;;;;;;;2.95;1.45;;;5.60;90.10;;;8.55;74.89;102563.16;4988751;28;97714;-68
2021/04/03 01:23:37;;;;;;;1.35;1.25;;;5.60;90.10;;;8.56;74.29;102552.25;4989927;28;96902;-68
2021/04/03 01:26:58;;;;;;;0.10;0.10;;;5.50;90.00;;;8.46;74.68;102554.78;4984795;28;97500;-68
2021/04/03 01:30:04;;;;;;;0.25;0.25;;;5.50;90.00;;;8.47;74.71;102551.06;4987272;28;99779;-68
2021/04/03 01:33:02;;;;;;;0.50;0.38;;;5.50;90.10;;;8.47;74.50;102561.72;4980411;28;99457;-68
2021/04/03 01:35:38;;;;;;;2.05;1.95;;;5.40;90.10;;;8.48;74.39;102563.34;4984809;28;96896;-68
2021/04/03 01:38:19;;;;;;;0.05;0.05;;;5.50;90.10;;;8.40;74.54;102569.06;4988260;28;97309;-68
2021/04/03 01:40:51;;;;;;;4.07;1.15;;;5.40;90.00;;;8.28;74.61;102575.56;5004879;28;97966;-68
2021/04/03 01:43:26;;;;;;;0.40;0.40;;;5.40;90.00;;;8.30;74.45;102574.25;4988629;28;97263;-68
2021/04/03 01:46:02;;;;;;;0.55;0.55;;;5.40;90.10;;;8.34;74.45;102575.41;5003639;28;96913;-68
2021/04/03 01:48:37;;;;;;;0.10;0.10;;;5.30;90.10;;;8.33;74.89;102579.13;4989201;28;96651;-68
2021/04/03 01:51:11;;;;;;;19.20;2.50;;;5.30;90.10;;;8.28;74.65;102576.38;4986403;28;97818;-68
2021/04/03 01:53:43;;;;;;;0.22;0.22;;;5.40;90.10;;;8.18;74.75;102570.03;4989394;28;97658;-68
2021/04/03 01:56:16;;;;;;;;;;;5.30;90.00;;;8.11;74.60;102572.03;4987852;28;97145;-68
2021/04/03 01:58:47;;;;;;;0.10;0.10;;;5.30;90.00;;;8.09;75.24;102576.78;4987565;28;97214;-68
2021/04/03 02:01:17;;;;;;;1.98;1.08;;;5.20;89.90;;;8.01;74.49;102586.00;4987117;28;97980;-68
2021/04/03 02:03:48;;;;;;;0.15;0.15;;;5.20;89.90;;;7.91;74.74;102587.66;4971722;28;97250;-68
2021/04/03 02:06:22;;;;;;;6.00;1.33;;;5.10;89.80;;;7.86;75.10;102588.41;4986277;28;96797;-68
2021/04/03 02:09:03;;;;;;;0.98;0.22;;;5.00;89.90;;;7.80;74.59;102589.31;4985588;28;97386;-68
2021/04/03 02:11:59;;;;;;;0.10;0.10;;;5.00;89.90;;;7.73;74.92;102582.53;4989036;28;97205;-69
2021/04/03 02:14:51;;;;;;;0.05;0.05;;;4.90;89.90;;;7.67;74.78;102580.81;4988885;28;96991;-68
2021/04/03 02:17:22;;;;;;;2.80;0.80;;;4.80;89.90;;;7.63;75.36;102584.97;5004427;28;97079;-68
2021/04/03 02:19:54;;;;;;;0.00;0.00;;;4.80;90.00;;;7.56;74.88;102576.31;4972832;28;97266;-68
2021/04/03 02:22:23;;;;;;;13.45;2.53;;;4.70;90.00;;;7.51;75.23;102583.44;4988206;28;97786;-68
2021/04/03 02:24:59;;;;;;;0.25;0.20;;;4.70;90.00;;;7.43;75.57;102586.44;4986422;28;96641;-68
2021/04/03 02:27:31;;;;;;;2.78;2.58;;;4.60;90.00;;;7.40;74.95;102593.06;4989436;28;96860;-68
2021/04/03 02:30:12;;;;;;;0.30;0.30;;;4.60;90.00;;;7.36;75.49;102593.78;4988059;28;96870;-68
2021/04/03 02:32:46;;;;;;;0.10;0.10;;;4.50;90.00;;;7.28;74.87;102589.59;4987508;28;98405;-68
2021/04/03 02:35:17;;;;;;;0.10;0.10;;;4.50;90.10;;;7.23;75.33;102591.38;4985251;28;97519;-68
2021/04/03 02:37:48;;;;;;;5.60;1.10;;;4.50;90.10;;;7.18;75.42;102583.25;4990352;28;96798;-68
2021/04/03 02:40:25;;;;;;;0.10;0.10;;;4.40;90.10;;;7.16;75.11;102591.50;5004139;28;96877;-68
2021/04/03 02:43:04;;;;;;;0.43;0.43;;;4.40;90.10;;;7.15;75.29;102589.03;4988026;28;97755;-68
2021/04/03 02:45:41;;;;;;;0.20;0.20;;;4.30;90.10;;;7.14;75.38;102582.09;5003127;28;97918;-68
2021/04/03 02:48:19;;;;;;;0.15;0.15;;;4.30;90.10;;;7.18;76.02;102572.56;4985875;28;97476;-68
2021/04/03 02:50:55;;;;;;;1.25;1.20;;;4.30;90.20;;;7.27;75.71;102584.53;4988195;28;96886;-69
2021/04/03 02:53:31;;;;;;;0.10;0.10;;;4.30;90.30;;;7.34;75.15;102582.53;4987311;28;98109;-68
2021/04/03 02:56:09;;;;;;;0.10;0.10;;;4.40;90.40;;;7.36;74.67;102585.78;4986566;28;97685;-69
2021/04/03 02:58:40;;;;;;;0.22;0.22;;;4.40;90.30;;;7.39;75.27;102578.13;4985950;28;97199;-68
2021/04/03 03:01:15;;;;;;;0.13;0.13;;;4.40;90.30;;;7.38;75.06;102583.69;4989921;28;96793;-68
2021/04/03 03:03:55;;;;;;;0.20;0.20;;;4.40;90.20;;;7.33;75.52;102584.38;4970854;28;97857;-68
2021/04/03 03:06:24;;;;;;;0.63;0.63;;;4.40;90.20;;;7.32;75.10;102592.63;4988739;28;97576;-68
2021/04/03 03:08:55;;;;;;;3.60;2.05;;;4.40;90.20;;;7.31;74.71;102588.34;4989041;28;96891;-68
2021/04/03 03:11:27;;;;;;;1.38;0.28;;;4.40;90.20;;;7.31;75.65;102599.00;4986804;28;97285;-68
2021/04/03 03:14:02;;;;;;;1.38;0.85;;;4.40;90.20;;;7.29;74.73;102601.09;4988146;28;99628;-68
2021/04/03 03:16:35;;;;;;;3.45;1.33;;;4.40;90.20;;;7.32;74.91;102593.41;4970846;28;97753;-69
2021/04/03 03:19:06;;;;;;;2.60;1.27;;;4.40;90.20;;;7.37;74.61;102592.72;4988580;28;96720;-69
2021/04/03 03:21:36;;;;;;;4.13;0.82;;;4.40;90.30;;;7.40;75.08;102592.25;4988382;28;97008;-69
2021/04/03 03:24:08;;;;;;;0.30;0.30;;;4.40;90.30;;;7.46;74.76;102593.97;5000826;28;97951;-69
2021/04/03 03:26:39;;;;;;;0.38;0.32;;;4.40;90.30;;;7.50;74.42;102598.59;4989387;28;97755;-69
2021/04/03 03:29:11;;;;;;;0.08;0.08;;;4.50;90.30;;;7.54;74.66;102596.28;5004136;28;96890;-69
2021/04/03 03:31:42;;;;;;;1.30;1.00;;;4.50;90.30;;;7.61;74.20;102599.63;4987379;28;96717;-69
2021/04/03 03:34:13;;;;;;;0.17;0.17;;;4.50;90.30;;;7.68;74.85;102600.28;4985969;28;96455;-69
2021/04/03 03:36:49;;;;;;;0.10;0.10;;;4.60;90.30;;;7.75;74.63;102607.91;4989888;28;96924;-69
2021/04/03 03:39:20;;;;;;;0.10;0.10;;;4.60;90.30;;;7.78;74.38;102610.09;4990932;28;97140;-69
2021/04/03 03:41:49;;;;;;;0.20;0.20;;;4.60;90.30;;;7.83;74.27;102610.22;4973211;28;96939;-69
2021/04/03 03:44:17;;;;;;;0.22;0.22;;;4.60;90.30;;;7.86;74.58;102620.41;4973085;28;98898;-69
2021/04/03 03:46:45;;;;;;;0.17;0.17;;;4.70;90.30;;;7.84;74.22;102614.50;4987937;28;97708;-69
2021/04/03 03:49:14;;;;;;;0.30;0.30;;;4.70;90.30;;;7.91;74.25;102609.84;4990672;28;96942;-69
2021/04/03 03:51:42;;;;;;;0.10;0.10;;;4.70;90.30;;;7.92;74.69;102616.78;4988103;28;97488;-69
2021/04/03 03:54:15;;;;;;;1.17;1.08;;;4.80;90.60;;;7.93;74.12;102623.75;4972040;28;97250;-69
2021/04/03 03:56:43;;;;;;;0.15;0.15;;;4.80;90.30;;;7.94;74.79;102628.03;4989056;28;96817;-69
2021/04/03 03:59:12;;;;;;;0.10;0.10;;;4.80;90.30;;;7.98;74.27;102634.53;4988916;28;96741;-69
2021/04/03 04:01:40;;;;;;;0.00;0.00;;;4.80;90.30;;;7.97;74.70;102626.78;4991269;28;97069;-69
2021/04/03 04:04:09;;;;;;;0.43;0.43;;;4.80;90.30;;;8.00;73.99;102637.75;4988948;28;96974;-69
2021/04/03 04:06:39;;;;;;;2.17;1.10;;;4.90;90.40;;;7.97;74.58;102643.56;4990681;28;98106;-69
2021/04/03 04:09:08;;;;;;;0.73;0.73;;;4.80;90.40;;;7.99;74.78;102644.16;4990762;28;97150;-69
2021/04/03 04:11:43;;;;;;;0.10;0.10;;;4.90;90.40;;;8.00;74.38;102631.63;4987163;28;96818;-69
2021/04/03 04:14:20;;;;;;;0.10;0.10;;;4.90;90.40;;;7.97;74.72;102634.78;4988859;28;96905;-69
2021/04/03 04:16:55;;;;;;;4.65;1.55;;;4.90;90.40;;;7.99;74.34;102635.34;4973463;28;96999;-69
2021/04/03 04:19:32;;;;;;;15.57;0.68;;;4.90;90.40;;;7.99;74.22;102636.13;4988834;28;96984;-69
2021/04/03 04:22:05;;;;;;;0.00;0.00;;;4.90;90.40;;;7.98;74.22;102636.41;4990434;28;96710;-69
2021/04/03 04:24:34;;;;;;;0.60;0.60;;;4.90;90.40;;;7.95;75.00;102634.16;4993545;28;99291;-69
2021/04/03 04:27:09;;;;;;;17.00;2.72;;;4.90;90.40;;;7.92;74.95;102640.81;4990797;28;97679;-69
2021/04/03 04:29:38;;;;;;;0.10;0.10;;;4.90;90.40;;;7.87;74.62;102630.03;4988322;28;97370;-69
2021/04/03 04:32:07;;;;;;;0.52;0.22;;;4.90;90.30;;;7.91;74.53;102630.38;4991259;28;96944;-69
2021/04/03 04:34:40;;;;;;;5.35;0.63;;;4.90;90.40;;;7.89;74.84;102629.78;4988674;28;96934;-69
2021/04/03 04:37:09;;;;;;;0.77;0.77;;;4.90;90.40;;;7.86;74.54;102639.09;4987823;28;97108;-69
2021/04/03 04:39:40;;;;;;;1.02;0.68;;;4.90;90.40;;;7.81;74.55;102639.00;4987541;28;97197;-69
2021/04/03 04:42:16;;;;;;;0.20;0.20;;;4.80;90.30;;;7.81;74.62;102628.34;4990143;28;97003;-69
2021/04/03 04:44:49;;;;;;;6.28;2.97;;;4.80;90.30;;;7.75;74.43;102631.94;4988369;28;97914;-69
2021/04/03 04:47:17;;;;;;;0.20;0.20;;;4.80;90.30;;;7.72;75.39;102643.06;4988445;28;97722;-69
2021/04/03 04:49:45;;;;;;;0.45;0.45;;;4.80;90.40;;;7.69;75.26;102638.22;4991062;28;96881;-69
2021/04/03 04:52:14;;;;;;;0.20;0.20;;;4.70;90.30;;;7.68;74.92;102639.25;4989114;28;96975;-69
2021/04/03 04:54:42;;;;;;;1.50;0.60;;;4.70;90.30;;;7.70;74.73;102655.84;4989321;28;96803;-69
2021/04/03 04:57:13;;;;;;;15.10;2.00;;;4.70;90.40;;;7.71;75.10;102654.78;4972024;28;96830;-69
2021/04/03 04:59:52;;;;;;;2.65;1.30;;;4.70;90.40;;;7.79;74.82;102657.09;5007004;28;96811;-69
2021/04/03 05:02:24;;;;;;;0.10;0.10;;;4.70;90.40;;;7.90;74.00;102666.09;4990237;28;96753;-69
2021/04/03 05:04:52;;;;;;;2.28;1.23;;;4.70;90.50;;;7.94;74.01;102667.25;4986652;28;98225;-69
2021/04/03 05:07:21;;;;;;;1.02;1.02;;;4.70;90.50;;;7.94;74.40;102669.91;4991158;28;97713;-69
2021/04/03 05:09:49;;;;;;;3.15;1.70;;;4.80;90.50;;;7.97;74.64;102672.94;5005285;28;96855;-69
2021/04/03 05:12:16;;;;;;;0.20;0.20;;;4.80;90.50;;;7.97;74.21;102672.13;4990805;28;97087;-69
2021/04/03 05:14:44;;;;;;;4.50;2.08;;;4.80;90.50;;;7.97;74.87;102670.25;4990489;28;96835;-68
2021/04/03 05:17:12;;;;;;;2.45;0.85;;;4.80;90.50;;;8.08;74.68;102681.97;5005414;28;97765;-69
2021/04/03 05:19:39;;;;;;;0.10;0.10;;;4.80;90.50;;;8.10;74.48;102686.00;4989604;28;96902;-69
2021/04/03 05:22:07;;;;;;;40.67;2.15;;;4.90;90.50;;;8.16;74.63;102679.72;4989014;28;97358;-69
2021/04/03 05:24:36;;;;;;;2.28;1.15;;;4.90;90.50;;;8.25;74.01;102677.50;4989955;28;97749;-69
2021/04/03 05:27:05;;;;;;;0.95;0.82;;;5.00;90.50;;;8.38;73.69;102690.56;4988740;28;97848;-69
2021/04/03 05:29:32;;;;;;;0.10;0.10;;;5.00;90.50;;;8.46;73.99;102696.34;4989540;28;97723;-69
2021/04/03 05:32:05;;;;;;;0.63;0.63;;;5.10;90.50;;;8.53;73.82;102702.34;4988938;28;96777;-69
2021/04/03 05:34:34;;;;;;;0.10;0.10;;;5.10;90.50;;;8.63;73.40;102709.72;4985616;28;97979;-69
2021/04/03 05:37:20;;;;;;;0.20;0.20;;;5.20;90.50;;;8.71;73.27;102712.84;4988004;28;97201;-69
2021/04/03 05:39:48;;;;;;;14.15;0.55;;;5.20;90.50;;;8.81;73.45;102715.66;4987096;28;96900;-69
2021/04/03 05:42:19;;;;;;;5.05;0.90;;;5.30;90.50;;;8.91;73.09;102715.03;4971756;28;97113;-69
2021/04/03 05:44:51;;;;;;;4.97;1.58;;;5.40;90.50;;;9.00;73.03;102716.25;5004592;28;96995;-69
2021/04/03 05:47:19;;;;;;;1.50;1.40;;;5.50;90.50;;;9.12;73.03;102712.44;4986772;28;97677;-69
2021/04/03 05:49:47;;;;;;;6.05;1.30;;;5.50;90.50;;;9.25;72.69;102712.09;4986812;28;97158;-69
2021/04/03 05:52:17;;;;;;;1.92;1.25;;;5.60;90.40;;;9.32;72.80;102718.09;4991463;28;96789;-69
2021/04/03 05:54:45;;;;;;;0.10;0.10;;;5.70;90.40;;;9.43;72.12;102726.00;5004597;28;96808;-68
2021/04/03 05:57:15;;;;;;;1.83;0.32;;;5.80;90.40;;;9.54;72.55;102729.63;4989245;28;96875;-69
2021/04/03 05:59:43;;;;;;;0.20;0.20;;;5.90;90.40;;;9.70;72.35;102726.94;4987651;28;96929;-68
2021/04/03 06:02:12;;;;;;;2.55;0.10;;;6.00;90.30;;;9.88;72.06;102723.16;4986798;28;97000;-69
2021/04/03 06:04:40;;;;;;;0.10;0.10;;;6.20;90.30;;;9.99;71.87;102730.25;5004763;28;96759;-69
2021/04/03 06:07:07;;;;;;;0.35;0.35;;;6.30;90.20;;;10.04;71.89;102735.72;4988074;28;97785;-69
2021/04/03 06:09:37;;;;;;;2.65;1.50;;;6.40;90.10;;;10.20;71.59;102745.53;4989588;28;96764;-69
2021/04/03 06:12:08;;;;;;;0.50;0.43;;;6.50;90.00;;;10.42;71.33;102736.44;4988161;28;97235;-69
2021/04/03 06:14:38;;;;;;;1.92;0.30;;;6.60;89.80;;;10.56;71.08;102742.22;4988726;28;98119;-69
2021/04/03 06:17:06;;;;;;;0.32;0.32;;;6.80;89.80;;;10.60;71.69;102748.69;4990264;28;97772;-69
2021/04/03 06:19:35;;;;;;;16.35;2.03;;;6.90;89.70;;;10.77;70.98;102749.38;4987068;28;96798;-68
2021/04/03 06:22:05;;;;;;;2.92;0.98;;;7.00;89.60;;;10.87;71.17;102752.16;4989038;28;97099;-69
2021/04/03 06:24:36;;;;;;;0.63;0.57;;;7.10;89.60;;;10.95;70.79;102753.31;4986198;28;98223;-69
2021/04/03 06:27:07;;;;;;;1.08;0.75;;;7.20;89.50;;;11.21;70.79;102768.56;4989272;28;96779;-68
2021/04/03 06:29:47;;;;;;;0.90;0.88;;;7.40;89.40;;;11.36;70.49;102765.97;5005907;28;97752;-68
2021/04/03 06:32:26;;;;;;;0.57;0.57;;;7.50;89.20;;;11.48;70.57;102773.84;4989021;28;96739;-68
2021/04/03 06:34:55;;;;;;;0.90;0.90;;;7.60;89.10;;;11.40;70.64;102772.44;4986018;28;97618;-68
2021/04/03 06:37:29;;;;;;;18.63;0.85;;;7.70;89.20;;;11.40;71.51;102777.81;4989726;28;97767;-68
2021/04/03 06:40:00;;;;;;;2.10;1.35;;;7.70;89.20;;;11.29;72.00;102778.81;4988915;28;97295;-68
2021/04/03 06:42:45;;;;;;;1.65;1.45;;;7.70;89.90;;;11.35;71.39;102777.78;4988725;28;96892;-69
2021/04/03 06:45:27;;;;;;;9.43;3.25;;;7.70;89.40;;;11.32;72.21;102772.94;4987716;28;97917;-68
2021/04/03 06:47:58;;;;;;;6.45;1.17;;;7.70;89.60;;;11.25;72.44;102776.88;4989335;28;97858;-69
2021/04/03 06:50:29;;;;;;;1.95;0.98;;;7.70;89.60;;;11.23;72.15;102781.69;4986470;28;96853;-68
2021/04/03 06:53:00;;;;;;;0.93;0.63;;;7.70;89.80;;;11.38;72.38;102790.69;5003526;28;97807;-68
2021/04/03 06:55:34;;;;;;;0.22;0.22;;;7.80;89.90;;;11.42;71.70;102794.50;4987684;28;97980;-68
2021/04/03 06:58:08;;;;;;;0.90;0.75;;;7.80;89.70;;;11.48;72.02;102798.84;4989101;28;96737;-68
2021/04/03 07:00:39;;;;;;;1.25;0.60;;;7.90;89.70;;;11.51;72.56;102795.63;4984344;28;97001;-68
2021/04/03 07:03:17;;;;;;;0.13;0.13;;;8.00;89.70;;;11.66;72.06;102805.69;4988152;28;97007;-68
2021/04/03 07:05:47;;;;;;;52.60;2.20;;;8.10;89.70;;;11.67;72.41;102810.00;4987025;28;97120;-68
2021/04/03 07:08:16;;;;;;;11.07;0.38;;;8.10;89.80;;;11.73;72.32;102820.53;4984100;28;97765;-68
2021/04/03 07:10:46;;;;;;;0.90;0.85;;;8.20;89.80;;;11.83;72.28;102823.28;4988545;28;96950;-68
2021/04/03 07:13:15;;;;;;;17.25;2.40;;;8.20;89.80;;;12.02;71.70;102815.59;4994023;28;97498;-68
2021/04/03 07:15:46;;;;;;;4.20;1.50;;;8.30;89.80;;;12.13;72.06;102820.75;4991663;28;98088;-68
2021/04/03 07:18:18;;;;;;;2.85;2.20;;;8.50;89.70;;;12.37;71.12;102819.25;4993447;28;97735;-68
2021/04/03 07:20:46;;;;;;;7.75;1.13;;;8.60;89.50;;;12.55;71.23;102824.97;4996704;28;97327;-68
2021/04/03 07:23:17;;;;;;;4.80;0.57;;;8.70;89.40;;;12.91;70.34;102823.16;4994434;28;97436;-68
2021/04/03 07:25:50;;;;;;;0.35;0.35;;;8.90;89.80;;;13.01;70.08;102824.03;4992270;28;97905;-68
2021/04/03 07:28:21;;;;;;;;;;;9.10;88.90;;;12.99;70.56;102828.09;4993242;28;97493;-68
2021/04/03 07:30:50;;;;;;;0.20;0.20;;;9.20;88.80;;;12.99;70.91;102838.84;4990387;28;97525;-68
2021/04/03 07:33:20;;;;;;;0.68;0.40;;;9.20;88.80;;;12.84;71.79;102838.75;4991298;28;97017;-69
2021/04/03 07:35:50;;;;;;;0.68;0.65;;;9.30;88.80;;;12.83;71.56;102837.16;5005932;28;97872;-68
2021/04/03 07:38:23;;;;;;;14.23;0.63;;;9.30;88.80;;;13.02;71.03;102835.63;4994727;28;97521;-68
2021/04/03 07:40:54;;;;;;;0.70;0.38;;;9.40;88.80;;;13.36;70.30;102842.13;4990980;28;97047;-68
2021/04/03 07:43:49;;;;;;;49.78;3.20;;;9.50;88.60;;;13.42;70.47;102841.03;4995648;28;97507;-68
2021/04/03 07:46:41;;;;;;;0.80;0.77;;;9.60;88.50;;;13.58;70.21;102843.44;4992332;28;98367;-69
2021/04/03 07:49:11;;;;;;;2.65;1.35;;;9.70;88.60;;;13.82;69.86;102854.50;4991645;28;97741;-67
2021/04/03 07:51:49;;;;;;;0.40;0.28;;;9.80;88.60;;;14.04;69.53;102848.50;4993703;28;97020;-68
2021/04/03 07:54:30;;;;;;;3.20;0.25;;;10.00;88.40;;;14.73;67.61;102843.97;4985914;28;97855;-68
2021/04/03 07:57:10;;;;;;;0.47;0.45;;;10.20;87.90;;;15.32;66.42;102841.19;4994318;28;97924;-68
2021/04/03 07:59:53;;;;;;;2.85;0.85;;;10.50;87.40;;;15.11;67.61;102853.19;5006792;28;96965;-68
2021/04/03 08:02:28;;;;;;;1.30;1.17;;;10.70;87.50;;;15.03;67.83;102857.28;4990492;28;97193;-67
2021/04/03 08:04:57;;;;;;;1.52;1.35;;;10.80;87.70;;;15.19;67.62;102853.38;4994003;28;97319;-68
2021/04/03 08:07:25;;;;;;;2.40;0.65;;;11.00;87.10;;;15.37;68.04;102858.16;4975030;28;97251;-68
2021/04/03 08:09:58;;;;;;;12.68;1.55;;;11.10;87.10;;;16.04;66.19;102849.97;5000652;22;97700;-84
2021/04/03 08:12:35;;;;;;;2.15;0.70;;;11.30;87.10;;;19.91;55.87;102850.38;4978721;28;96783;-84
2021/04/03 08:15:10;;;;;;;1.13;0.43;;;12.00;86.50;;;21.65;53.06;102847.00;4943336;23;97905;-69
2021/04/03 08:17:39;;;;;;;7.85;1.38;;;13.00;85.00;;;21.78;53.64;102846.03;4948685;28;98322;-70
2021/04/03 08:20:14;;;;;;;0.93;0.82;;;13.70;84.00;;;22.25;53.43;102845.66;4931663;28;98761;-68
2021/04/03 08:23:05;;;;;;;12.57;0.90;;;14.30;83.60;;;25.60;46.93;102846.25;4930745;28;96848;-69
2021/04/03 08:25:34;;;;;;;11.75;1.30;;;15.20;82.70;;;26.91;44.97;102854.59;4928217;28;96849;-69
2021/04/03 08:28:20;;;;;;;3.95;1.42;;;16.20;81.50;;;28.61;42.78;102843.16;4928832;28;96959;-69
2021/04/03 08:30:47;;;;;;;6.05;1.23;;;17.20;80.30;;;30.26;40.33;102845.78;4924520;28;97371;-69
2021/04/03 08:33:18;;;;;;;12.30;2.22;;;18.40;78.80;;;30.16;41.65;102841.75;4943974;28;97139;-68
2021/04/03 08:35:50;;;;;;;3.13;0.70;;;19.40;77.50;;;27.15;49.31;102851.59;4947366;28;97377;-69
2021/04/03 08:38:23;;;;;;;2.53;1.38;;;19.90;77.00;;;25.96;53.39;102849.56;4928147;28;98542;-67
2021/04/03 08:40:56;;;;;;;8.93;0.75;;;20.00;77.20;;;25.24;55.73;102846.44;4942799;28;96984;-67
2021/04/03 08:43:27;;;;;;;5.97;1.75;;;20.00;77.60;;;25.93;53.54;102846.75;4927968;28;97358;-67
2021/04/03 08:46:08;;;;;;;15.70;0.75;;;19.90;77.90;;;24.07;58.63;102850.56;4927591;28;97583;-67
2021/04/03 08:48:40;;;;;;;3.28;1.15;;;19.60;78.20;;;28.33;48.66;102848.25;4929573;28;99921;-67
2021/04/03 08:51:10;;;;;;;3.08;1.48;;;19.50;80.00;;;30.32;44.68;102844.22;4927797;28;98153;-67
2021/04/03 08:53:42;;;;;;;6.03;0.98;;;20.10;80.30;;;31.72;42.93;102851.22;4941286;28;97061;-67
2021/04/03 08:56:17;;;;;;;6.00;1.38;;;20.90;79.60;;;32.45;41.81;102842.88;4931003;28;97097;-67
2021/04/03 08:58:47;;;;;;;5.57;1.63;;;21.70;78.30;;;33.22;41.39;102840.66;4930171;28;97974;-70
2021/04/03 09:01:15;;;;;;;0.45;0.45;;;22.50;77.40;;;33.37;41.46;102839.34;4927568;28;97449;-69
2021/04/03 09:03:46;;;;;;;9.13;1.27;;;23.10;75.70;;;32.27;44.37;102842.13;4944685;28;96830;-68
2021/04/03 09:06:14;;;;;;;2.90;1.50;;;23.50;75.30;;;30.49;48.74;102843.56;4929293;28;97014;-67
2021/04/03 09:08:42;;;;;;;4.05;1.08;;;23.60;75.40;;;31.87;45.61;102848.06;4931279;28;97964;-68
2021/04/03 09:11:09;;;;;;;7.13;1.08;;;23.70;75.40;;;33.31;43.49;102834.63;4926532;28;98213;-67
2021/04/03 09:13:40;;;;;;;9.60;2.17;;;23.90;75.70;;;31.30;47.91;102831.69;4946885;28;96896;-66
2021/04/03 09:16:11;;;;;;;8.65;1.23;;;24.20;75.20;;;29.71;51.52;102835.81;4945234;28;96798;-69
2021/04/03 09:18:40;;;;;;;4.82;1.35;;;24.00;74.80;;;31.31;47.73;102831.31;4927607;28;98079;-68
2021/04/03 09:21:19;;;;;;;15.15;1.13;;;23.80;75.70;;;32.46;45.70;102825.81;4929172;28;97407;-66
2021/04/03 09:23:51;;;;;;;5.05;1.38;;;23.90;76.00;;;32.81;45.88;102824.94;4944776;28;97506;-69
2021/04/03 09:26:32;;;;;;;7.65;2.65;;;24.40;75.90;;;32.81;46.55;102822.94;4930104;28;96955;-66
2021/04/03 09:29:10;;;;;;;7.03;1.05;;;24.80;75.10;;;33.16;46.28;102819.19;4930117;28;98153;-67
2021/04/03 09:31:44;;;;;;;7.05;2.17;;;25.40;74.40;;;31.27;50.83;102824.97;4931183;28;96891;-66
2021/04/03 09:34:17;;;;;;;10.70;1.25;;;25.60;73.80;;;29.92;53.88;102819.41;4928615;28;96977;-66
2021/04/03 09:36:50;;;;;;;14.10;0.85;;;25.50;74.10;;;29.29;55.79;102821.56;4928960;28;97032;-66
2021/04/03 09:39:20;;;;;;;9.45;1.65;;;25.10;74.40;;;30.09;54.20;102819.56;4928759;28;97936;-66
2021/04/03 09:41:50;;;;;;;5.72;1.33;;;25.00;75.10;;;30.48;53.52;102820.66;4927107;28;97681;-66
2021/04/03 09:44:18;;;;;;;11.02;2.03;;;25.20;75.00;;;30.69;53.20;102823.53;4926820;28;96846;-67
2021/04/03 09:46:48;;;;;;;12.60;1.90;;;25.50;73.90;;;29.02;57.11;102833.88;4928988;28;96804;-66
2021/04/03 09:49:17;;;;;;;6.60;1.52;;;25.50;73.30;;;27.39;60.38;102839.09;4930209;28;98320;-66
2021/04/03 09:51:46;;;;;;;5.82;1.67;;;25.00;71.90;;;26.16;62.73;102834.00;4929156;28;96807;-66
2021/04/03 09:54:14;;;;;;;8.05;1.90;;;24.30;72.40;;;25.94;62.89;102835.41;4929527;28;96793;-66
2021/04/03 09:56:41;;;;;;;5.97;1.70;;;23.60;73.80;;;26.36;62.03;102838.38;4931578;28;97016;-66
2021/04/03 09:59:12;;;;;;;4.50;1.75;;;23.30;75.80;;;25.51;63.24;102833.84;4928891;28;98205;-66
2021/04/03 10:01:40;;;;;;;12.02;2.33;;;22.90;75.30;;;25.86;62.60;102835.59;4942708;28;98296;-66
2021/04/03 10:04:07;;;;;;;1.60;1.00;;;22.70;76.30;;;25.90;62.22;102833.72;4930024;28;97264;-66
2021/04/03 10:06:35;;;;;;;2.40;1.10;;;22.70;76.20;;;26.30;61.52;102842.56;4945711;28;97008;-66
2021/04/03 10:09:05;;;;;;;13.13;1.35;;;22.70;76.50;;;26.35;61.33;102850.53;4930258;28;97109;-66
2021/04/03 10:11:33;;;;;;;8.77;2.95;;;22.80;75.70;;;25.29;62.52;102845.38;4945748;28;96949;-66
2021/04/03 10:14:03;;;;;;;4.10;1.77;;;22.60;74.80;;;24.23;64.69;102844.06;4929285;28;96994;-66
2021/04/03 10:16:32;;;;;;;6.57;1.75;;;22.00;74.80;;;24.17;65.29;102850.91;4928440;28;96998;-66
2021/04/03 10:18:59;;;;;;;1.00;0.70;;;21.50;76.40;;;24.22;64.50;102853.44;4932057;28;97921;-66
2021/04/03 10:21:31;;;;;;;3.80;1.07;;;21.30;77.00;;;24.34;64.74;102847.97;4929144;28;97674;-66
2021/04/03 10:24:00;;;;;;;19.48;0.85;;;21.20;78.00;;;24.63;64.50;102850.47;4929665;28;97772;-66
2021/04/03 10:26:34;;;;;;;10.88;1.75;;;21.20;78.30;;;24.73;63.73;102841.78;4928965;28;96981;-66
2021/04/03 10:29:05;;;;;;;9.15;1.45;;;21.20;77.80;;;24.58;63.90;102841.69;4944535;28;97163;-66
2021/04/03 10:31:32;;;;;;;8.93;1.08;;;21.00;77.20;;;24.38;63.96;102842.56;4928143;28;98831;-66
2021/04/03 10:34:00;;;;;;;6.50;1.83;;;20.80;77.90;;;24.58;63.71;102838.94;4921835;28;97880;-68
2021/04/03 10:36:31;;;;;;;0.85;0.60;;;20.80;78.50;;;24.87;63.81;102841.41;4926539;28;97788;-69
2021/04/03 10:38:58;;;;;;;6.97;1.13;;;20.80;78.70;;;24.26;64.39;102846.13;4926509;28;97860;-68
2021/04/03 10:41:26;;;;;;;2.72;2.08;;;20.60;77.90;;;23.57;64.88;102843.72;4925960;28;97701;-69
2021/04/03 10:43:54;;;;;;;3.15;1.27;;;20.30;77.20;;;22.99;64.70;102843.91;4925425;28;97347;-68